Αναφορές METAR Αεροδρομίων

 

LGTS - THESSALONIKI - GREECE
Ενημερώθηκε: 06/06/2020 03:50
Αραιές Νεφώσεις
Αραιές Νεφώσεις
 Ανεμος από ΝΝΔ
Ανεμος: ΝΝΔ 7 km/h
Θερμοκρασία: 20°C
Σημείο Δρόσου: 16°C
Υγρασία: 78%
Βαρόμετρο: 1008 hPa
Clouds: Αραιές Νεφώσεις
Visibility: 10 km
Cloud details: Αραιές Νεφώσεις 610 m
2020/06/06 00:50 LGTS 060050Z 20004KT 9999 FEW020 20/16 Q1008 NOSIG
LGLR - LARTISA - GREECE
Ενημερώθηκε: 06/06/2020 03:50
Σχεδόν νεφελώδης
Σχεδόν νεφελώδης
 Ανεμος από ΒΑ
Ανεμος: ΒΑ 11 km/h
Θερμοκρασία: 18°C
Σημείο Δρόσου: 16°C
Υγρασία: 88%
Βαρόμετρο: 1007 hPa
Clouds: Σχεδόν νεφελώδης
Visibility: 10 km
Cloud details: Μερικώς νεφελώδης 762 m
Σχεδόν νεφελώδης 2438 m
2020/06/06 00:50 LGLR 060050Z 04006KT 9999 SCT025 BKN080 18/16 Q1007 RETS RMK SCT180 BLU
 
LGKZ - KOZANI - GREECE
Ενημερώθηκε: 06/06/2020 03:50

 Ανεμος από ΒΔ
Ανεμος: ΒΔ 7 km/h
Θερμοκρασία: 14°C
Σημείο Δρόσου: 12°C
Υγρασία: 88%
Βαρόμετρο: 1008 hPa
2020/06/06 00:50 LGKZ 060050Z AUTO 32004KT 300V020 //// // ////// 14/12 Q1008 RERA
LGKV - KAVALA - GREECE
Ενημερώθηκε: 06/06/2020 03:50
Μερικώς νεφελώδης
Μερικώς νεφελώδης
 Ανεμος από ΒΑ
Ανεμος: ΒΑ 15 km/h
Θερμοκρασία: 17°C
Σημείο Δρόσου: 15°C
Υγρασία: 88%
Βαρόμετρο: 1010 hPa
Clouds: Μερικώς νεφελώδης
Visibility: 10 km
Cloud details: Αραιές Νεφώσεις 549 m
Μερικώς νεφελώδης 2438 m
2020/06/06 00:50 LGKV 060050Z 05008KT 9999 FEW018 SCT080 17/15 Q1010
 
LGIO - IOANNINA - GREECE
Ενημερώθηκε: 06/06/2020 03:50
Ασθενής βροχή
Ασθενής βροχή
 Ανεμος από varies
Ανεμος: varies 4 km/h
Θερμοκρασία: 16°C
Σημείο Δρόσου: 14°C
Υγρασία: 88%
Βαρόμετρο: 1004 hPa
Περίληψη: Ασθενής βροχή
2020/06/06 00:50 LGIO 060050Z AUTO VRB02KT //// -RA ////// 16/14 Q1004 RE//
LGBL - BOLOS - GREECE
Ενημερώθηκε: 06/06/2020 03:50
Σχεδόν νεφελώδης
Σχεδόν νεφελώδης
 Ανεμος από ΝΑ
Ανεμος: ΝΑ 13 km/h
Θερμοκρασία: 21°C
Σημείο Δρόσου: 11°C
Υγρασία: 53%
Βαρόμετρο: 1006 hPa
Clouds: Σχεδόν νεφελώδης
Visibility: 10 km
Cloud details: Σχεδόν νεφελώδης 2438 m
2020/06/06 00:50 LGBL 060050Z 14007KT 9999 BKN080 21/11 Q1006
 
LGMT - MITILINI - GREECE
Ενημερώθηκε: 06/06/2020 03:50
Αίθριος
Αίθριος
 Ανεμος από varies
Ανεμος: varies 6 km/h
Θερμοκρασία: 20°C
Σημείο Δρόσου: 13°C
Υγρασία: 64%
Βαρόμετρο: 1012 hPa
Περίληψη: Αίθριος
Visibility: greater than 10 km
2020/06/06 00:50 LGMT 060050Z VRB03KT CAVOK 20/13 Q1012
LGAV - ATHENS - GREECE
Ενημερώθηκε: 06/06/2020 03:50
Αραιές Νεφώσεις
Αραιές Νεφώσεις
 Ανεμος από ΑΝΑ
Ανεμος: ΑΝΑ 9 km/h
Θερμοκρασία: 19°C
Σημείο Δρόσου: 14°C
Υγρασία: 73%
Βαρόμετρο: 1009 hPa
Clouds: Αραιές Νεφώσεις
Visibility: 10 km
Cloud details: Αραιές Νεφώσεις 914 m
2020/06/06 00:50 LGAV 060050Z 12005KT 080V160 9999 FEW030 19/14 Q1009 NOSIG
 
LGRP - RODOS - GREECE
Ενημερώθηκε: 06/06/2020 03:50
Αίθριος
Αίθριος
 Ανεμος από Α
Ανεμος: Α 7 km/h
Θερμοκρασία: 19°C
Σημείο Δρόσου: 13°C
Υγρασία: 68%
Βαρόμετρο: 1012 hPa
Περίληψη: Αίθριος
Visibility: greater than 10 km
2020/06/06 00:50 LGRP 060050Z 10004KT CAVOK 19/13 Q1012 NOSIG
LGIR - HRAKLIO/KRITI - GREECE
Ενημερώθηκε: 06/06/2020 03:50
Μερικώς νεφελώδης
Μερικώς νεφελώδης
 Ανεμος από ΝΝΑ
Ανεμος: ΝΝΑ 52 km/h
Θερμοκρασία: 24°C
Σημείο Δρόσου: 3°C
Υγρασία: 25%
Βαρόμετρο: 1007 hPa
Clouds: Μερικώς νεφελώδης
Visibility: 10 km
Cloud details: Μερικώς νεφελώδης 762 m
2020/06/06 00:50 LGIR 060050Z 16028KT 9999 SCT025 24/03 Q1007 NOSIG
 
LGMK - MIKONOS - GREECE
Ενημερώθηκε: 05/06/2020 21:50
NOT Current
Αίθριος
Αίθριος
 Ανεμος από ΑΝΑ
Ανεμος: ΑΝΑ 26 km/h
Θερμοκρασία: 21°C
Σημείο Δρόσου: 8°C
Υγρασία: 43%
Βαρόμετρο: 1013 hPa
Περίληψη: Αίθριος
Visibility: greater than 10 km
2020/06/05 18:50 LGMK 051850Z 12014KT CAVOK 21/08 Q1013
LGKR - KERKIRA - GREECE
Ενημερώθηκε: 06/06/2020 03:50
Light thunderstorm, Βροχή, Σχεδόν νεφελώδης
Light thunderstorm, Βροχή, Σχεδόν νεφελώδης
 Ανεμος από Ν
Ανεμος: Ν 39 km/h
Θερμοκρασία: 21°C
Σημείο Δρόσου: 16°C
Υγρασία: 73%
Βαρόμετρο: 1001 hPa
Περίληψη: Light thunderstorm, Βροχή
Clouds: Σχεδόν νεφελώδης
Visibility: 7 km
Cloud details: Αραιές Νεφώσεις 457 m
Αραιές Νεφώσεις 914 m
Μερικώς νεφελώδης 1372 m
Σχεδόν νεφελώδης 2438 m
2020/06/06 00:50 LGKR 060050Z 17021KT 7000 -TSRA FEW015 FEW030CB SCT045 BKN080 21/16 Q1001 BECMG 1500 +TSRA SCT020CB